Time;durP1;ratioP1;P1;durP2;ratioP2;P2;SDS_P1;SDS_P2;PMS_P1;PMS_P2;Temp;Humidity;BMP_temperature;BMP_pressure;BME280_temperature;BME280_humidity;BME280_pressure;Samples;Min_cycle;Max_cycle;Signal;HPM_P1;HPM_P2
2021/01/10 00:00:26;;;;;;;23.63;13.55;;;-4.30;85.50;;;;;;4980123;28;20081;-77
2021/01/10 00:02:53;;;;;;;27.43;13.90;;;-4.30;85.60;;;;;;4980277;28;20027;-77
2021/01/10 00:05:30;;;;;;;21.42;12.30;;;-4.30;85.80;;;;;;4958078;28;20046;-77
2021/01/10 00:07:57;;;;;;;16.15;9.93;;;-4.30;85.60;;;;;;4980009;28;20035;-78
2021/01/10 00:10:23;;;;;;;23.15;13.50;;;-4.30;85.40;;;;;;4962223;28;20027;-78
2021/01/10 00:12:49;;;;;;;24.58;12.85;;;-4.40;85.40;;;;;;4975507;28;20481;-77
2021/01/10 00:15:18;;;;;;;24.35;12.00;;;-4.40;85.60;;;;;;4974133;28;20086;-77
2021/01/10 00:17:46;;;;;;;24.38;12.75;;;-4.40;85.50;;;;;;4974064;28;20023;-77
2021/01/10 00:20:12;;;;;;;21.65;14.32;;;-4.40;85.80;;;;;;4979551;28;20033;-77
2021/01/10 00:22:39;;;;;;;23.95;12.88;;;-4.40;86.20;;;;;;4980062;28;20039;-77
2021/01/10 00:25:10;;;;;;;26.33;13.32;;;-4.40;86.20;;;;;;4980006;28;20019;-78
2021/01/10 00:27:37;;;;;;;29.55;14.40;;;-4.40;86.70;;;;;;4980057;28;20058;-77
2021/01/10 00:30:08;;;;;;;29.00;13.30;;;-4.40;86.90;;;;;;4985072;28;20157;-76
2021/01/10 00:32:34;;;;;;;18.83;12.35;;;-4.40;87.20;;;;;;4978417;28;20034;-78
2021/01/10 00:34:59;;;;;;;20.83;13.13;;;-4.40;87.20;;;;;;4982288;28;20030;-79
2021/01/10 00:37:25;;;;;;;25.02;15.48;;;-4.30;87.20;;;;;;4994335;28;20022;-77
2021/01/10 00:39:51;;;;;;;22.75;12.50;;;-4.30;87.30;;;;;;4983037;28;20030;-78
2021/01/10 00:42:18;;;;;;;27.58;13.50;;;-4.30;87.00;;;;;;4979624;28;20022;-78
2021/01/10 00:44:45;;;;;;;24.40;12.80;;;-4.30;86.70;;;;;;4980527;28;20027;-78
2021/01/10 00:47:12;;;;;;;19.05;11.10;;;-4.30;87.00;;;;;;4977730;28;20019;-77
2021/01/10 00:49:39;;;;;;;24.20;12.75;;;-4.30;86.80;;;;;;4977603;28;20074;-78
2021/01/10 00:52:06;;;;;;;19.98;11.90;;;-4.30;86.40;;;;;;4976865;28;20015;-78
2021/01/10 00:54:32;;;;;;;16.63;10.57;;;-4.40;86.70;;;;;;4981535;28;20023;-78
2021/01/10 00:57:01;;;;;;;23.38;11.13;;;-4.30;87.00;;;;;;4980493;28;20022;-76
2021/01/10 00:59:27;;;;;;;26.95;14.15;;;-4.40;87.00;;;;;;4958984;28;20041;-76
2021/01/10 01:01:53;;;;;;;20.35;10.48;;;-4.40;86.60;;;;;;4976745;28;20027;-77
2021/01/10 01:04:19;;;;;;;28.02;12.98;;;-4.50;86.60;;;;;;4976498;28;20089;-75
2021/01/10 01:06:45;;;;;;;21.00;11.43;;;-4.50;86.70;;;;;;4976566;28;20019;-77
2021/01/10 01:09:12;;;;;;;22.58;13.82;;;-4.50;86.60;;;;;;4976614;28;20035;-77
2021/01/10 01:11:39;;;;;;;20.17;12.75;;;-4.50;86.60;;;;;;4976414;28;20047;-79
2021/01/10 01:14:07;;;;;;;21.20;12.15;;;-4.50;86.60;;;;;;4976434;28;20097;-78
2021/01/10 01:16:36;;;;;;;22.85;11.85;;;-4.50;86.90;;;;;;4976355;28;20036;-76
2021/01/10 01:19:03;;;;;;;24.35;10.80;;;-4.40;86.90;;;;;;4954350;28;20018;-77
2021/01/10 01:21:29;;;;;;;19.63;11.90;;;-4.40;86.90;;;;;;4976278;28;20074;-77
2021/01/10 01:23:55;;;;;;;20.70;11.25;;;-4.40;86.60;;;;;;4975986;28;20038;-77
2021/01/10 01:26:22;;;;;;;20.40;12.00;;;-4.40;86.50;;;;;;4975959;28;20074;-78
2021/01/10 01:28:49;;;;;;;21.30;12.38;;;-4.40;86.40;;;;;;4934018;29;20433;-77
2021/01/10 01:31:17;;;;;;;22.15;10.85;;;-4.40;86.40;;;;;;4972102;28;20037;-77
2021/01/10 01:33:43;;;;;;;23.25;12.50;;;-4.50;86.00;;;;;;4979268;28;20022;-78
2021/01/10 01:36:15;;;;;;;25.30;13.83;;;-4.50;86.00;;;;;;4977265;28;20030;-75
2021/01/10 01:38:42;;;;;;;27.00;12.35;;;-4.50;86.10;;;;;;4979776;28;20352;-76
2021/01/10 01:41:09;;;;;;;22.70;11.38;;;-4.50;86.20;;;;;;4975824;28;20607;-77
2021/01/10 01:43:36;;;;;;;23.88;12.43;;;-4.50;86.20;;;;;;4975514;28;20027;-78
2021/01/10 01:46:04;;;;;;;23.08;12.52;;;-4.50;85.90;;;;;;4975598;28;20053;-78
2021/01/10 01:48:30;;;;;;;24.17;11.60;;;-4.50;86.00;;;;;;4975937;28;20427;-77
2021/01/10 01:51:00;;;;;;;20.10;10.75;;;-4.50;85.70;;;;;;4975963;28;20035;-78
2021/01/10 01:53:27;;;;;;;23.75;11.10;;;-4.50;85.80;;;;;;4982561;28;20027;-78
2021/01/10 01:55:55;;;;;;;25.55;12.98;;;-4.50;86.00;;;;;;4976182;28;20381;-77
2021/01/10 01:58:21;;;;;;;29.88;13.45;;;-4.50;86.00;;;;;;4975410;28;20023;-77
2021/01/10 02:00:47;;;;;;;31.95;14.73;;;-4.50;85.90;;;;;;4975630;28;20110;-77
2021/01/10 02:03:41;;;;;;;20.35;10.98;;;-4.50;86.10;;;;;;4975499;28;20046;-78
2021/01/10 02:06:20;;;;;;;19.42;9.23;;;-4.50;86.40;;;;;;4972675;28;20057;-78
2021/01/10 02:08:49;;;;;;;25.80;12.00;;;-4.50;86.30;;;;;;4958197;28;20426;-79
2021/01/10 02:11:17;;;;;;;21.17;11.93;;;-4.60;86.00;;;;;;4975566;28;20077;-78
2021/01/10 02:13:45;;;;;;;25.30;12.65;;;-4.60;86.20;;;;;;4975228;28;20019;-80
2021/01/10 02:16:12;;;;;;;25.60;11.23;;;-4.60;86.30;;;;;;4958264;28;20090;-79
2021/01/10 02:18:39;;;;;;;20.17;10.27;;;-4.50;86.30;;;;;;4975199;28;20033;-77
2021/01/10 02:21:08;;;;;;;21.98;12.10;;;-4.60;85.30;;;;;;4957723;28;20302;-79
2021/01/10 02:23:36;;;;;;;18.98;10.00;;;-4.60;85.50;;;;;;4975243;28;20043;-79
2021/01/10 02:26:03;;;;;;;24.58;12.55;;;-4.60;85.60;;;;;;4967671;28;20390;-77
2021/01/10 02:28:31;;;;;;;29.33;13.00;;;-4.60;85.30;;;;;;4951806;28;20019;-77
2021/01/10 02:31:02;;;;;;;19.13;9.77;;;-4.60;85.80;;;;;;4961307;28;20126;-77
2021/01/10 02:33:28;;;;;;;22.83;10.73;;;-4.70;85.60;;;;;;4957869;28;20034;-77
2021/01/10 02:35:55;;;;;;;21.63;11.93;;;-4.70;85.90;;;;;;4973710;28;20045;-76
2021/01/10 02:38:42;;;;;;;21.23;10.10;;;-4.70;86.00;;;;;;4978194;28;20329;-78
2021/01/10 02:41:34;;;;;;;20.02;12.38;;;-4.70;85.90;;;;;;4979968;28;20031;-75
2021/01/10 02:44:18;;;;;;;16.05;10.70;;;-4.70;86.00;;;;;;4974695;28;20034;-77
2021/01/10 02:46:49;;;;;;;19.75;9.80;;;-4.70;85.40;;;;;;4975510;28;20023;-75
2021/01/10 02:49:15;;;;;;;19.50;9.73;;;-4.70;85.00;;;;;;4973125;28;20030;-77
2021/01/10 02:51:41;;;;;;;23.90;11.60;;;-4.70;85.00;;;;;;4974463;28;20049;-77
2021/01/10 02:54:06;;;;;;;21.42;13.30;;;-4.80;85.20;;;;;;4976699;28;20038;-77
2021/01/10 02:56:37;;;;;;;21.77;12.23;;;-4.80;85.60;;;;;;4957445;28;20022;-77
2021/01/10 02:59:05;;;;;;;27.20;11.88;;;-4.80;85.60;;;;;;4962605;28;20106;-77
2021/01/10 03:01:32;;;;;;;21.17;13.05;;;-4.90;85.20;;;;;;4973176;28;20027;-77
2021/01/10 03:03:59;;;;;;;23.27;11.13;;;-4.90;84.80;;;;;;4974644;28;20045;-77
2021/01/10 03:06:25;;;;;;;21.33;12.15;;;-4.90;85.20;;;;;;4974135;28;20483;-77
2021/01/10 03:08:52;;;;;;;25.65;13.77;;;-4.90;85.40;;;;;;4973419;28;20476;-76
2021/01/10 03:11:18;;;;;;;20.00;12.10;;;-4.90;85.00;;;;;;4973962;28;20109;-76
2021/01/10 03:13:46;;;;;;;16.53;9.80;;;-5.00;84.80;;;;;;4974351;28;20025;-77
2021/01/10 03:16:12;;;;;;;;;;;-4.90;85.20;;;;;;4974534;28;20054;-77
2021/01/10 03:18:38;;;;;;;25.27;12.10;;;-4.90;85.50;;;;;;4973779;28;19910;-77
2021/01/10 03:21:03;;;;;;;18.13;11.27;;;-5.00;85.60;;;;;;4956420;28;20046;-77
2021/01/10 03:23:29;;;;;;;16.58;9.40;;;-4.90;85.50;;;;;;4973820;28;20026;-76
2021/01/10 03:25:55;;;;;;;15.30;8.60;;;-5.00;85.00;;;;;;4973969;28;20552;-77
2021/01/10 03:28:21;;;;;;;17.73;10.20;;;-5.00;85.10;;;;;;4973674;28;20472;-77
2021/01/10 03:30:47;;;;;;;19.10;11.80;;;-5.00;84.70;;;;;;4973547;28;20066;-77
2021/01/10 03:33:13;;;;;;;21.58;12.10;;;-5.10;84.40;;;;;;4973897;28;20389;-78
2021/01/10 03:35:39;;;;;;;22.08;12.48;;;-5.10;84.20;;;;;;4973630;28;20078;-77
2021/01/10 03:38:07;;;;;;;21.40;11.23;;;-5.20;84.40;;;;;;4973926;28;20025;-77
2021/01/10 03:40:42;;;;;;;25.20;11.15;;;-5.20;84.70;;;;;;4973598;28;20034;-78
2021/01/10 03:43:11;;;;;;;23.85;13.93;;;-5.20;84.40;;;;;;4956425;28;20064;-77
2021/01/10 03:45:45;;;;;;;23.65;12.82;;;-5.20;84.60;;;;;;4969672;28;20031;-76
2021/01/10 03:48:13;;;;;;;19.05;9.77;;;-5.20;84.70;;;;;;4956443;28;20026;-76
2021/01/10 03:50:39;;;;;;;14.48;8.20;;;-5.20;84.20;;;;;;4966811;28;20090;-77
2021/01/10 03:53:05;;;;;;;18.50;9.57;;;-5.30;83.50;;;;;;4975975;28;20031;-77
2021/01/10 03:55:31;;;;;;;22.00;9.90;;;-5.40;83.20;;;;;;4973433;28;20493;-78
2021/01/10 03:57:56;;;;;;;20.27;11.13;;;-5.50;82.80;;;;;;4973365;28;20038;-76
2021/01/10 04:00:22;;;;;;;19.02;9.50;;;-5.60;84.00;;;;;;4973269;28;20488;-77
2021/01/10 04:02:48;;;;;;;24.80;10.95;;;-5.70;83.70;;;;;;4973265;28;20023;-77
2021/01/10 04:05:14;;;;;;;19.80;9.07;;;-5.70;84.00;;;;;;4973383;28;20114;-78
2021/01/10 04:07:40;;;;;;;21.55;12.43;;;-5.70;84.30;;;;;;4973338;28;20092;-77
2021/01/10 04:10:06;;;;;;;18.20;9.98;;;-5.70;84.20;;;;;;4973148;28;20077;-77
2021/01/10 04:12:32;;;;;;;21.10;10.52;;;-5.80;84.10;;;;;;4956986;28;20027;-77
2021/01/10 04:14:58;;;;;;;15.93;8.05;;;-5.80;84.20;;;;;;4973347;28;20103;-76
2021/01/10 04:17:25;;;;;;;17.77;8.70;;;-5.80;83.70;;;;;;4973417;28;20023;-76
2021/01/10 04:19:52;;;;;;;18.40;10.55;;;-5.80;84.20;;;;;;4959815;28;20489;-76
2021/01/10 04:22:18;;;;;;;;;;;-5.80;84.70;;;;;;4977110;28;20057;-76
2021/01/10 04:24:44;;;;;;;18.50;10.32;;;-5.80;84.80;;;;;;4981152;28;19977;-77
2021/01/10 04:27:10;;;;;;;22.75;10.32;;;-5.90;83.90;;;;;;4987148;28;20047;-76
2021/01/10 04:29:35;;;;;;;21.23;11.23;;;-5.90;84.00;;;;;;4977563;28;20102;-78
2021/01/10 04:32:01;;;;;;;20.33;10.63;;;-5.90;84.30;;;;;;4976873;28;20018;-77
2021/01/10 04:34:27;;;;;;;22.10;10.43;;;-5.90;84.70;;;;;;4977492;28;20031;-78
2021/01/10 04:36:53;;;;;;;18.60;10.25;;;-5.90;84.20;;;;;;4986892;28;20026;-78
2021/01/10 04:39:19;;;;;;;21.85;11.20;;;-5.90;83.50;;;;;;4983064;28;20023;-78
2021/01/10 04:41:45;;;;;;;20.38;10.07;;;-6.00;83.30;;;;;;4959847;28;20046;-78
2021/01/10 04:44:13;;;;;;;20.65;11.32;;;-6.00;83.70;;;;;;4977324;28;20019;-78
2021/01/10 04:46:40;;;;;;;19.48;11.50;;;-6.00;83.90;;;;;;4979594;28;20027;-77
2021/01/10 04:49:06;;;;;;;16.67;9.43;;;-6.00;84.10;;;;;;4980073;28;20050;-78
2021/01/10 04:51:36;;;;;;;14.17;7.97;;;-6.00;84.20;;;;;;4977831;28;20026;-78
2021/01/10 04:54:03;;;;;;;17.88;10.50;;;-6.00;84.40;;;;;;4977257;28;20023;-76
2021/01/10 04:56:30;;;;;;;22.10;11.13;;;-6.00;84.60;;;;;;4964323;28;20566;-77
2021/01/10 04:59:01;;;;;;;20.02;10.80;;;-6.00;84.60;;;;;;4976372;28;20027;-76
2021/01/10 05:01:35;;;;;;;14.23;9.75;;;-6.00;84.90;;;;;;4976372;28;20021;-76
2021/01/10 05:04:01;;;;;;;17.83;11.45;;;-6.00;85.10;;;;;;4976824;28;20050;-77
2021/01/10 05:06:27;;;;;;;16.30;8.18;;;-6.00;85.00;;;;;;4979240;28;20066;-76
2021/01/10 05:08:55;;;;;;;18.90;9.63;;;-6.00;85.10;;;;;;4977279;28;20034;-77
2021/01/10 05:11:21;;;;;;;19.42;10.15;;;-6.00;85.40;;;;;;4975882;28;20019;-78
2021/01/10 05:13:46;;;;;;;18.85;10.35;;;-6.00;85.50;;;;;;4975990;28;20027;-76
2021/01/10 05:16:19;;;;;;;17.20;9.95;;;-6.00;85.60;;;;;;4975956;28;20018;-76
2021/01/10 05:19:03;;;;;;;23.75;10.52;;;-6.00;85.50;;;;;;4976151;28;20026;-75
2021/01/10 05:21:30;;;;;;;15.10;10.02;;;-6.10;84.60;;;;;;4970856;28;20058;-77
2021/01/10 05:23:57;;;;;;;19.58;9.38;;;-6.10;84.40;;;;;;4975749;28;20081;-76
2021/01/10 05:26:33;;;;;;;21.20;11.70;;;-6.10;84.00;;;;;;4975520;28;20039;-76
2021/01/10 05:29:10;;;;;;;18.55;9.07;;;-6.20;84.50;;;;;;4975767;28;20392;-75
2021/01/10 05:31:45;;;;;;;18.50;9.45;;;-6.20;84.80;;;;;;4969740;28;20031;-77
2021/01/10 05:34:15;;;;;;;20.83;10.25;;;-6.10;85.00;;;;;;4975581;28;20023;-78
2021/01/10 05:36:42;;;;;;;17.48;10.82;;;-6.20;84.70;;;;;;4958008;28;20441;-78
2021/01/10 05:39:21;;;;;;;14.40;7.80;;;-6.20;84.50;;;;;;4975508;28;20118;-78
2021/01/10 05:42:05;;;;;;;21.27;9.15;;;-6.20;84.60;;;;;;4969854;28;20038;-75
2021/01/10 05:44:46;;;;;;;19.00;9.15;;;-6.20;84.60;;;;;;4975248;28;20027;-76
2021/01/10 05:47:14;;;;;;;17.23;9.55;;;-6.20;84.60;;;;;;4974554;28;20022;-77
2021/01/10 05:49:48;;;;;;;17.75;9.82;;;-6.30;84.60;;;;;;4975080;28;20085;-78
2021/01/10 05:52:15;;;;;;;17.25;10.52;;;-6.20;84.80;;;;;;4975851;28;20017;-77
2021/01/10 05:54:48;;;;;;;24.17;10.32;;;-6.20;84.70;;;;;;4976594;28;20027;-76
2021/01/10 05:57:16;;;;;;;18.67;10.52;;;-6.20;84.80;;;;;;4975197;28;20019;-77
2021/01/10 05:59:44;;;;;;;20.98;10.30;;;-6.20;85.00;;;;;;4975209;28;20046;-77
2021/01/10 06:02:11;;;;;;;19.58;10.45;;;-6.20;85.30;;;;;;4969539;28;20105;-79
2021/01/10 06:04:37;;;;;;;21.60;13.52;;;-6.10;85.50;;;;;;4974924;28;20034;-79
2021/01/10 06:07:04;;;;;;;21.02;12.13;;;-6.10;84.40;;;;;;4975168;28;20015;-76
2021/01/10 06:09:47;;;;;;;15.00;9.13;;;-6.10;84.20;;;;;;4978033;28;20436;-78
2021/01/10 06:12:20;;;;;;;15.93;9.98;;;-6.20;84.40;;;;;;4985357;28;20536;-76
2021/01/10 06:14:46;;;;;;;21.33;11.52;;;-6.20;84.30;;;;;;4974754;28;20034;-76
2021/01/10 06:17:16;;;;;;;23.33;12.73;;;-6.30;85.10;;;;;;4974732;28;20093;-76
2021/01/10 06:19:44;;;;;;;24.70;10.45;;;-6.20;84.80;;;;;;4974495;28;20114;-78
2021/01/10 06:22:17;;;;;;;19.35;9.57;;;-6.30;84.80;;;;;;4957635;28;20129;-77
2021/01/10 06:24:47;;;;;;;22.52;10.68;;;-6.30;85.10;;;;;;4974672;28;20019;-76
2021/01/10 06:27:22;;;;;;;17.63;9.10;;;-6.30;84.60;;;;;;4964877;28;20078;-78
2021/01/10 06:29:54;;;;;;;21.67;10.85;;;-6.30;84.40;;;;;;4957315;28;20165;-77
2021/01/10 06:32:26;;;;;;;15.95;9.57;;;-6.30;84.40;;;;;;4965209;28;20097;-77
2021/01/10 06:34:54;;;;;;;20.58;10.10;;;-6.20;84.50;;;;;;4958304;28;20054;-77
2021/01/10 06:37:20;;;;;;;20.17;9.55;;;-6.20;84.30;;;;;;4983492;28;20122;-77
2021/01/10 06:39:47;;;;;;;20.05;10.00;;;-6.20;84.70;;;;;;4976701;28;20026;-78
2021/01/10 06:42:14;;;;;;;23.05;14.05;;;-6.20;85.10;;;;;;4974735;28;20030;-76
2021/01/10 06:44:46;;;;;;;23.95;11.00;;;-6.10;84.80;;;;;;4973714;28;20031;-76
2021/01/10 06:47:24;;;;;;;22.25;10.85;;;-6.10;84.10;;;;;;4977102;28;20023;-76
2021/01/10 06:50:10;;;;;;;23.77;9.82;;;-6.10;84.10;;;;;;4963551;28;20038;-76
2021/01/10 06:52:39;;;;;;;15.25;8.82;;;-6.10;85.10;;;;;;4974898;28;20042;-79
2021/01/10 06:55:06;;;;;;;21.13;9.40;;;-6.00;84.70;;;;;;4975700;28;20086;-78
2021/01/10 06:57:34;;;;;;;20.40;10.00;;;-5.90;84.70;;;;;;4974097;28;20019;-77
2021/01/10 07:00:08;;;;;;;18.70;9.15;;;-5.90;84.50;;;;;;4974446;28;20027;-79
2021/01/10 07:03:06;;;;;;;21.45;12.02;;;-5.90;84.20;;;;;;4974278;28;20031;-77
2021/01/10 07:05:57;;;;;;;20.77;10.57;;;-5.90;83.50;;;;;;4964324;28;20421;-77
2021/01/10 07:08:52;;;;;;;17.42;9.15;;;-6.00;83.80;;;;;;4973795;28;20031;-79
2021/01/10 07:11:21;;;;;;;22.10;10.60;;;-6.00;83.70;;;;;;4974030;28;20090;-79
2021/01/10 07:13:52;;;;;;;17.08;9.80;;;-6.00;83.90;;;;;;4973875;28;20026;-79
2021/01/10 07:16:21;;;;;;;17.35;10.15;;;-6.00;83.80;;;;;;4973292;28;20031;-78
2021/01/10 07:19:04;;;;;;;20.90;9.00;;;-6.10;83.60;;;;;;4973754;28;20019;-77
2021/01/10 07:21:34;;;;;;;24.40;11.27;;;-6.10;83.90;;;;;;4973741;28;20157;-76
2021/01/10 07:24:23;;;;;;;17.35;9.55;;;-6.20;83.50;;;;;;4971669;28;20033;-77
2021/01/10 07:27:00;;;;;;;14.07;10.30;;;-6.10;83.90;;;;;;4966970;28;20042;-76
2021/01/10 07:29:32;;;;;;;18.40;11.18;;;-6.20;83.80;;;;;;4973704;28;20030;-77
2021/01/10 07:32:04;;;;;;;14.50;9.43;;;-6.10;84.30;;;;;;4972390;28;20019;-79
2021/01/10 07:34:35;;;;;;;20.88;10.43;;;-6.10;84.40;;;;;;4973169;28;20038;-77
2021/01/10 07:37:03;;;;;;;16.88;10.73;;;-6.10;84.40;;;;;;4971534;28;20042;-77
2021/01/10 07:39:31;;;;;;;18.02;9.95;;;-6.00;84.60;;;;;;4973597;28;20038;-78
2021/01/10 07:42:10;;;;;;;25.23;11.65;;;-6.00;84.60;;;;;;4973439;28;20026;-78
2021/01/10 07:44:57;;;;;;;17.00;8.80;;;-6.00;84.40;;;;;;4973820;28;20384;-79
2021/01/10 07:47:32;;;;;;;19.70;10.38;;;-5.90;84.40;;;;;;4972957;28;20034;-78
2021/01/10 07:49:59;;;;;;;19.73;10.45;;;-5.90;84.60;;;;;;4974845;28;20062;-78
2021/01/10 07:52:48;;;;;;;;;;;-5.90;85.00;;;;;;4976980;28;20062;-77
2021/01/10 07:55:20;;;;;;;19.70;8.25;;;-5.80;84.50;;;;;;4970536;28;19961;-80
2021/01/10 07:58:01;;;;;;;17.38;9.13;;;-5.80;84.80;;;;;;4976525;28;20361;-78
2021/01/10 08:00:33;;;;;;;20.30;10.07;;;-5.80;85.30;;;;;;4977793;28;20089;-80
2021/01/10 08:03:02;;;;;;;18.90;11.20;;;-5.70;85.30;;;;;;4970529;28;20070;-78
2021/01/10 08:05:42;;;;;;;22.38;12.65;;;-5.70;85.00;;;;;;4978216;28;20027;-79
2021/01/10 08:08:15;;;;;;;16.15;10.43;;;-5.60;84.80;;;;;;4971955;28;20082;-77
2021/01/10 08:10:41;;;;;;;13.77;8.82;;;-5.50;84.20;;;;;;4967501;28;20054;-78
2021/01/10 08:13:40;;;;;;;20.30;11.95;;;-5.50;83.40;;;;;;4964002;28;20347;-77
2021/01/10 08:16:07;;;;;;;18.67;9.00;;;-5.60;82.40;;;;;;4960320;28;20047;-78
2021/01/10 08:18:46;;;;;;;15.57;9.27;;;-5.70;82.50;;;;;;4976589;28;20409;-79
2021/01/10 08:21:19;;;;;;;14.90;10.77;;;-5.80;82.30;;;;;;4971510;28;20568;-78
2021/01/10 08:23:52;;;;;;;18.90;10.20;;;-5.90;82.70;;;;;;4977063;28;20023;-78
2021/01/10 08:26:18;;;;;;;21.80;10.77;;;-5.90;82.70;;;;;;4973990;28;20077;-78
2021/01/10 08:28:56;;;;;;;18.05;11.90;;;-5.90;82.80;;;;;;4977148;28;20023;-78
2021/01/10 08:31:24;;;;;;;20.05;11.10;;;-5.90;83.00;;;;;;4954107;28;20333;-79
2021/01/10 08:34:12;;;;;;;19.38;10.23;;;-6.00;83.40;;;;;;4979214;28;20029;-77
2021/01/10 08:36:38;;;;;;;22.33;10.63;;;-5.90;83.90;;;;;;4981940;28;20049;-79
2021/01/10 08:39:13;;;;;;;18.67;9.90;;;-5.90;84.30;;;;;;4979651;28;20468;-77
2021/01/10 08:41:43;;;;;;;25.20;10.68;;;-5.90;83.60;;;;;;4977618;28;20031;-79
2021/01/10 08:44:21;;;;;;;16.23;9.43;;;-6.00;83.90;;;;;;4959745;28;20022;-79
2021/01/10 08:46:52;;;;;;;;;;;-6.00;84.10;;;;;;4984440;28;20039;-79
2021/01/10 08:49:23;;;;;;;13.23;7.55;;;-6.00;83.70;;;;;;4965855;28;19990;-80
2021/01/10 08:51:49;;;;;;;20.20;10.23;;;-6.00;83.40;;;;;;4977338;28;20031;-80
2021/01/10 08:54:17;;;;;;;19.48;12.68;;;-5.90;83.70;;;;;;4977318;28;20015;-81
2021/01/10 08:56:44;;;;;;;20.88;10.55;;;-6.00;83.70;;;;;;4961061;28;20047;-79
2021/01/10 08:59:11;;;;;;;14.23;8.25;;;-5.90;83.60;;;;;;4976608;28;20023;-80
2021/01/10 09:01:38;;;;;;;20.90;10.15;;;-5.90;83.30;;;;;;4977430;28;20039;-80
2021/01/10 09:04:11;;;;;;;20.65;10.10;;;-5.90;83.50;;;;;;4975742;28;20078;-81
2021/01/10 09:06:42;;;;;;;23.17;11.40;;;-5.90;83.60;;;;;;4974306;28;20058;-81
2021/01/10 09:09:33;;;;;;;23.52;11.73;;;-5.80;83.70;;;;;;4976693;28;20097;-83
2021/01/10 09:12:06;;;;;;;19.60;11.38;;;-5.80;83.30;;;;;;4929992;28;20034;-80
2021/01/10 09:14:41;;;;;;;19.20;9.25;;;-5.70;83.70;;;;;;4976183;28;20098;-82
2021/01/10 09:17:09;;;;;;;20.92;10.65;;;-5.70;83.50;;;;;;4970945;28;20034;-82
2021/01/10 09:19:36;;;;;;;19.83;11.02;;;-5.60;83.70;;;;;;4976569;28;20019;-82
2021/01/10 09:22:03;;;;;;;20.17;10.82;;;-5.60;83.40;;;;;;4959591;28;20025;-80
2021/01/10 09:24:35;;;;;;;19.08;11.07;;;-5.50;83.20;;;;;;4959285;28;20027;-81
2021/01/10 09:27:12;;;;;;;17.13;11.00;;;-5.50;82.90;;;;;;4976048;28;20451;-81
2021/01/10 09:29:39;;;;;;;21.08;11.30;;;-5.30;83.40;;;;;;4969108;28;20061;-80
2021/01/10 09:32:06;;;;;;;19.83;11.87;;;-5.30;83.30;;;;;;4976131;28;20023;-80
2021/01/10 09:34:31;;;;;;;20.03;11.97;;;-5.20;82.60;;;;;;4975825;28;20106;-80
2021/01/10 09:37:04;;;;;;;16.67;11.23;;;-5.20;81.70;;;;;;4976418;28;20441;-80
2021/01/10 09:40:06;;;;;;;19.50;11.25;;;-5.20;81.60;;;;;;4977093;28;20023;-80
2021/01/10 09:42:49;;;;;;;20.23;9.95;;;-5.20;82.10;;;;;;4972806;28;20014;-80
2021/01/10 09:45:18;;;;;;;20.92;9.65;;;-5.10;82.80;;;;;;4976188;28;20050;-81
2021/01/10 09:47:43;;;;;;;19.85;11.18;;;-5.10;82.30;;;;;;4974810;28;20023;-82
2021/01/10 09:50:16;;;;;;;20.08;11.20;;;-5.10;81.70;;;;;;4973935;28;20130;-79
2021/01/10 09:52:49;;;;;;;24.35;10.30;;;-5.10;81.40;;;;;;4976847;28;20034;-80
2021/01/10 09:55:17;;;;;;;23.00;13.02;;;-5.00;82.00;;;;;;4975480;28;20496;-81
2021/01/10 09:57:43;;;;;;;16.52;9.48;;;-5.00;81.70;;;;;;4975199;28;20063;-79
2021/01/10 10:00:15;;;;;;;19.67;10.65;;;-5.00;81.50;;;;;;4975183;28;20027;-79
2021/01/10 10:02:45;;;;;;;20.75;11.40;;;-5.00;81.20;;;;;;4974367;28;20110;-80
2021/01/10 10:05:16;;;;;;;20.42;10.07;;;-5.00;80.70;;;;;;4978671;28;20026;-80
2021/01/10 10:07:47;;;;;;;17.77;9.73;;;-5.10;80.60;;;;;;4969001;28;20027;-79
2021/01/10 10:10:25;;;;;;;20.75;11.43;;;-5.10;81.30;;;;;;4966497;28;20043;-79
2021/01/10 10:12:56;;;;;;;22.52;10.55;;;-5.10;81.70;;;;;;4975894;28;20031;-79
2021/01/10 10:15:33;;;;;;;16.95;10.35;;;-5.10;81.80;;;;;;4967714;28;20106;-81
2021/01/10 10:18:00;;;;;;;19.80;12.30;;;-5.10;81.30;;;;;;4969802;28;20101;-80
2021/01/10 10:20:26;;;;;;;19.38;9.50;;;-5.10;81.40;;;;;;4975619;28;20034;-81
2021/01/10 10:22:54;;;;;;;14.48;8.38;;;-5.10;81.50;;;;;;4968986;28;20105;-80
2021/01/10 10:25:20;;;;;;;16.95;8.77;;;-5.20;82.30;;;;;;4975203;28;20022;-82
2021/01/10 10:27:55;;;;;;;18.25;9.80;;;-5.20;82.00;;;;;;4970831;28;20042;-84
2021/01/10 10:30:21;;;;;;;18.38;9.38;;;-5.30;81.50;;;;;;4965058;28;20496;-83
2021/01/10 10:32:47;;;;;;;19.25;8.20;;;-5.30;82.30;;;;;;4972106;28;20043;-83
2021/01/10 10:35:13;;;;;;;14.80;9.25;;;-5.30;82.50;;;;;;4976353;28;20031;-85
2021/01/10 10:37:39;;;;;;;20.95;11.13;;;-5.30;82.00;;;;;;4963758;28;20076;-80
2021/01/10 10:40:05;;;;;;;18.33;10.85;;;-5.30;82.00;;;;;;4969707;28;20448;-83
2021/01/10 10:42:31;;;;;;;19.83;11.18;;;-5.30;82.10;;;;;;4978472;28;20018;-83
2021/01/10 10:44:57;;;;;;;18.98;10.15;;;-5.30;82.10;;;;;;4986974;28;20053;-82
2021/01/10 10:47:23;;;;;;;13.52;8.77;;;-5.30;82.10;;;;;;4987354;28;20027;-80
2021/01/10 10:49:49;;;;;;;19.38;11.38;;;-5.30;82.30;;;;;;4977792;28;20040;-79
2021/01/10 10:52:15;;;;;;;17.30;9.07;;;-5.20;82.20;;;;;;4976316;28;20477;-80
2021/01/10 10:54:41;;;;;;;18.33;10.93;;;-5.20;82.10;;;;;;4976878;28;20054;-81
2021/01/10 10:57:08;;;;;;;20.08;11.80;;;-5.20;81.90;;;;;;4965390;28;20023;-82
2021/01/10 10:59:34;;;;;;;21.77;11.10;;;-5.20;82.30;;;;;;4981933;28;20034;-87
2021/01/10 11:02:05;;;;;;;20.13;11.63;;;-5.20;82.30;;;;;;4963166;28;20018;-88
2021/01/10 11:04:31;;;;;;;16.70;10.80;;;-5.20;82.80;;;;;;4974205;28;20090;-87
2021/01/10 11:06:57;;;;;;;29.38;13.23;;;-5.10;83.20;;;;;;4977624;28;20026;-83
2021/01/10 11:09:23;;;;;;;26.98;12.00;;;-5.00;83.20;;;;;;4972606;28;20037;-82
2021/01/10 11:11:49;;;;;;;17.77;10.23;;;-5.00;82.40;;;;;;4958194;28;20038;-84
2021/01/10 11:14:17;;;;;;;19.77;10.35;;;-5.10;82.60;;;;;;4979053;28;20029;-86
2021/01/10 11:16:50;;;;;;;;;;;-5.00;83.20;;;;;;4977209;28;20026;-84
2021/01/10 11:19:17;;;;;;;16.80;10.20;;;-5.00;82.50;;;;;;4976311;28;19906;-81
2021/01/10 11:21:48;;;;;;;18.48;10.63;;;-5.00;82.50;;;;;;4977618;28;20086;-84
2021/01/10 11:24:15;;;;;;;18.17;11.05;;;-5.10;82.30;;;;;;4988880;28;20019;-85
2021/01/10 11:26:43;;;;;;;17.92;11.60;;;-5.10;82.70;;;;;;4977945;28;20054;-84
2021/01/10 11:29:09;;;;;;;21.02;11.57;;;-5.20;83.10;;;;;;4958224;28;20507;-85
2021/01/10 11:31:37;;;;;;;18.90;10.73;;;-5.20;83.10;;;;;;4977588;28;20031;-84
2021/01/10 11:34:08;;;;;;;17.52;9.40;;;-5.20;83.00;;;;;;4977647;28;20022;-78
2021/01/10 11:36:35;;;;;;;17.58;11.88;;;-5.20;83.10;;;;;;4974908;28;20030;-81
2021/01/10 11:39:02;;;;;;;21.88;12.00;;;-5.20;82.70;;;;;;4957761;28;20037;-82
2021/01/10 11:41:28;;;;;;;26.52;13.13;;;-5.30;82.70;;;;;;4957586;28;20440;-81
2021/01/10 11:43:54;;;;;;;22.23;13.60;;;-5.30;83.00;;;;;;4974522;28;20031;-80
2021/01/10 11:46:21;;;;;;;16.05;8.88;;;-5.30;82.80;;;;;;4961807;28;20098;-82
2021/01/10 11:48:48;;;;;;;25.10;12.60;;;-5.40;82.60;;;;;;4976753;28;20030;-81
2021/01/10 11:51:15;;;;;;;23.33;10.95;;;-5.40;83.00;;;;;;4957710;28;20121;-82
2021/01/10 11:53:42;;;;;;;23.67;11.90;;;-5.40;83.50;;;;;;4974961;28;20073;-83
2021/01/10 11:56:08;;;;;;;20.67;10.40;;;-5.40;83.70;;;;;;4956718;28;20027;-81
2021/01/10 11:58:37;;;;;;;18.45;10.88;;;-5.40;83.50;;;;;;4956785;28;20023;-80
2021/01/10 12:01:03;;;;;;;18.48;9.88;;;-5.40;83.50;;;;;;4974534;28;20042;-80
2021/01/10 12:03:28;;;;;;;17.60;10.32;;;-5.50;83.50;;;;;;4957966;28;20023;-81
2021/01/10 12:05:54;;;;;;;16.80;11.40;;;-5.50;83.70;;;;;;4984364;28;20023;-82
2021/01/10 12:08:24;;;;;;;20.02;10.50;;;-5.50;84.10;;;;;;4976051;28;20023;-79
2021/01/10 12:10:51;;;;;;;20.80;10.57;;;-5.50;84.50;;;;;;4973909;28;20035;-83
2021/01/10 12:13:17;;;;;;;22.60;11.80;;;-5.40;84.80;;;;;;4973356;28;20380;-79
2021/01/10 12:15:47;;;;;;;24.23;12.43;;;-5.40;84.50;;;;;;4954502;28;20097;-84
2021/01/10 12:18:13;;;;;;;22.40;11.93;;;-5.40;85.10;;;;;;4963879;28;20060;-81
2021/01/10 12:20:40;;;;;;;21.33;11.25;;;-5.30;84.60;;;;;;4972537;28;20126;-81
2021/01/10 12:23:06;;;;;;;15.40;8.93;;;-5.30;84.00;;;;;;4974537;28;20030;-82
2021/01/10 12:25:33;;;;;;;17.63;10.63;;;-5.30;84.30;;;;;;4965993;28;20046;-87
2021/01/10 12:27:59;;;;;;;23.10;11.07;;;-5.30;84.50;;;;;;4973796;28;20054;-83
2021/01/10 12:30:26;;;;;;;18.50;11.03;;;-5.20;85.00;;;;;;4980679;28;20034;-85
2021/01/10 12:32:53;;;;;;;21.70;12.60;;;-5.20;85.10;;;;;;4950324;28;20023;-88
2021/01/10 12:35:20;;;;;;;21.85;12.50;;;-5.20;84.80;;;;;;4975105;28;20030;-79
2021/01/10 12:37:48;;;;;;;25.20;11.93;;;-5.10;84.40;;;;;;4975714;28;20101;-82
2021/01/10 12:40:17;;;;;;;23.10;11.32;;;-5.10;84.00;;;;;;4975668;28;20030;-84
2021/01/10 12:42:48;;;;;;;21.23;11.13;;;-5.10;84.60;;;;;;4980842;28;20445;-84